La Corey, Canada
Current Conditions -  °F | °C
As of 2:00 PM on Friday 24 Oct 2014 (Local Time) from CYOD Reporting Station
Scattered Clouds Scattered Clouds  
Wind Chill: 39°   Ceiling: Unl
Heat Index: 46°   Visibility: 15mi
Dew Point: 32°   Wind: 20mph
Humidity: 57%   Direction: 270°W
Pressure: 29.76"   Gusts: 25mph
Location:  54.45°N, 110.76°W
Report Text: CYOD 242000Z 27017G22KT 15SM FEW030 SCT220 08/00 A2976 RMKSC2CI1 SLP096
Loading
Personal Weather Stations






























Interactive Weather Map
Tropical Storm Tracking
New forecast layout! Learn more

10-Day Weather Forecast

Advertisements
Track Severe Weather on mobile